カラチ の空港の天気 - METARとTAF

ジンナー国際空港(カラチ) ( OPKC / KHI ) - パキスタン Karachi
飛行場実況気象(Metar)
観測時間05/29 03:00 PKT (05/28 22:00 UTC)
風向・風速西 7m/s
視程5000m
天気現象煙霧
少しの雲 雲底高度 610m
気温29℃
湿度74%
気圧1001hPa
METAROPKC 282200Z 27014KT 5000 HZ FEW020 29/24 Q1001 NOSIG
過去の天気等 Google飛行場航空写真 Wunderground天気予報

過去48時間のMETAR

飛行場予報(TAF)
発表時間: 5/28 20:30 PKT (5/28 15:30 UTC)
予報対象時間: 28日23時 PKT ~ 30日5時 PKT
風向・風速西 5m/s
視程4000m
天気現象煙霧
全天の4割程度の雲 雲底高度 760m
29日11時 PKT から
風向・風速西 8m/s 瞬間風速 13m/s
視程4000m
天気現象高い風塵
なし
TAF OPKC 281530Z 2818/2924 26010KT 4000 HZ SCT025
FM290600 26015G25KT 4000 BLDU NSC